sensor_id;sensor_type;location;lat;lon;timestamp;temperature;humidity
18794;DHT22;29610;49.022;12.114;2022-08-21T00:01:53;16.40;99.90
18794;DHT22;29610;49.022;12.114;2022-08-21T00:04:22;16.40;99.90
18794;DHT22;29610;49.022;12.114;2022-08-21T00:06:55;16.40;99.90
18794;DHT22;29610;49.022;12.114;2022-08-21T00:09:25;16.30;99.90
18794;DHT22;29610;49.022;12.114;2022-08-21T00:11:53;16.30;99.90
18794;DHT22;29610;49.022;12.114;2022-08-21T00:14:23;16.30;99.90
18794;DHT22;29610;49.022;12.114;2022-08-21T00:16:58;16.30;99.90
18794;DHT22;29610;49.022;12.114;2022-08-21T00:19:27;16.40;99.90
18794;DHT22;29610;49.022;12.114;2022-08-21T00:21:56;16.40;99.90
18794;DHT22;29610;49.022;12.114;2022-08-21T00:24:26;16.40;99.90
18794;DHT22;29610;49.022;12.114;2022-08-21T00:26:55;16.30;99.90
18794;DHT22;29610;49.022;12.114;2022-08-21T00:29:25;16.30;99.90
18794;DHT22;29610;49.022;12.114;2022-08-21T00:31:53;16.30;99.90
18794;DHT22;29610;49.022;12.114;2022-08-21T00:34:22;16.30;99.90
18794;DHT22;29610;49.022;12.114;2022-08-21T00:36:50;16.40;99.90
18794;DHT22;29610;49.022;12.114;2022-08-21T00:39:19;16.50;99.90
18794;DHT22;29610;49.022;12.114;2022-08-21T00:41:47;16.50;99.90
18794;DHT22;29610;49.022;12.114;2022-08-21T00:44:16;16.50;99.90
18794;DHT22;29610;49.022;12.114;2022-08-21T00:46:46;16.50;99.90
18794;DHT22;29610;49.022;12.114;2022-08-21T00:49:15;16.50;99.90
18794;DHT22;29610;49.022;12.114;2022-08-21T00:51:49;16.40;99.90
18794;DHT22;29610;49.022;12.114;2022-08-21T00:54:21;16.50;99.90
18794;DHT22;29610;49.022;12.114;2022-08-21T00:56:56;16.40;99.90
18794;DHT22;29610;49.022;12.114;2022-08-21T00:59:29;16.50;99.90
18794;DHT22;29610;49.022;12.114;2022-08-21T01:02:05;16.50;99.90
18794;DHT22;29610;49.022;12.114;2022-08-21T01:04:35;16.50;99.90
18794;DHT22;29610;49.022;12.114;2022-08-21T01:07:04;16.50;99.90
18794;DHT22;29610;49.022;12.114;2022-08-21T01:09:34;16.50;99.90
18794;DHT22;29610;49.022;12.114;2022-08-21T01:12:03;16.50;99.90
18794;DHT22;29610;49.022;12.114;2022-08-21T01:14:33;16.50;99.90
18794;DHT22;29610;49.022;12.114;2022-08-21T01:17:04;16.50;99.90
18794;DHT22;29610;49.022;12.114;2022-08-21T01:19:34;16.50;99.90
18794;DHT22;29610;49.022;12.114;2022-08-21T01:22:04;16.40;99.90
18794;DHT22;29610;49.022;12.114;2022-08-21T01:24:33;16.40;99.90
18794;DHT22;29610;49.022;12.114;2022-08-21T01:27:03;16.50;99.90
18794;DHT22;29610;49.022;12.114;2022-08-21T01:29:36;16.40;99.90
18794;DHT22;29610;49.022;12.114;2022-08-21T01:32:12;16.30;99.90
18794;DHT22;29610;49.022;12.114;2022-08-21T01:34:46;16.40;99.90
18794;DHT22;29610;49.022;12.114;2022-08-21T01:37:18;16.40;99.90
18794;DHT22;29610;49.022;12.114;2022-08-21T01:39:48;16.40;99.90
18794;DHT22;29610;49.022;12.114;2022-08-21T01:42:17;16.30;99.90
18794;DHT22;29610;49.022;12.114;2022-08-21T01:44:45;16.30;99.90
18794;DHT22;29610;49.022;12.114;2022-08-21T01:47:15;16.40;99.90
18794;DHT22;29610;49.022;12.114;2022-08-21T01:49:45;16.50;99.90
18794;DHT22;29610;49.022;12.114;2022-08-21T01:52:13;16.50;99.90
18794;DHT22;29610;49.022;12.114;2022-08-21T01:54:43;16.50;99.90
18794;DHT22;29610;49.022;12.114;2022-08-21T01:57:21;16.50;99.90
18794;DHT22;29610;49.022;12.114;2022-08-21T01:59:52;16.50;99.90
18794;DHT22;29610;49.022;12.114;2022-08-21T02:02:21;16.50;99.90
18794;DHT22;29610;49.022;12.114;2022-08-21T02:04:49;16.50;99.90
18794;DHT22;29610;49.022;12.114;2022-08-21T02:07:18;16.40;99.90
18794;DHT22;29610;49.022;12.114;2022-08-21T02:09:48;16.50;99.90
18794;DHT22;29610;49.022;12.114;2022-08-21T02:12:16;16.50;99.90
18794;DHT22;29610;49.022;12.114;2022-08-21T02:14:45;16.40;99.90
18794;DHT22;29610;49.022;12.114;2022-08-21T02:17:13;16.50;99.90
18794;DHT22;29610;49.022;12.114;2022-08-21T02:19:42;16.50;99.90
18794;DHT22;29610;49.022;12.114;2022-08-21T02:22:11;16.50;99.90
18794;DHT22;29610;49.022;12.114;2022-08-21T02:24:40;16.60;99.90
18794;DHT22;29610;49.022;12.114;2022-08-21T02:27:23;16.60;99.90
18794;DHT22;29610;49.022;12.114;2022-08-21T02:29:54;16.60;99.90
18794;DHT22;29610;49.022;12.114;2022-08-21T02:32:24;16.60;99.90
18794;DHT22;29610;49.022;12.114;2022-08-21T02:34:54;16.70;99.90
18794;DHT22;29610;49.022;12.114;2022-08-21T02:37:23;16.70;99.90
18794;DHT22;29610;49.022;12.114;2022-08-21T02:39:52;16.80;99.90
18794;DHT22;29610;49.022;12.114;2022-08-21T02:42:22;16.70;99.90
18794;DHT22;29610;49.022;12.114;2022-08-21T02:44:51;16.80;99.90
18794;DHT22;29610;49.022;12.114;2022-08-21T02:47:19;16.80;99.90
18794;DHT22;29610;49.022;12.114;2022-08-21T02:49:47;16.90;99.90
18794;DHT22;29610;49.022;12.114;2022-08-21T02:52:16;16.90;99.90
18794;DHT22;29610;49.022;12.114;2022-08-21T02:54:44;16.80;99.90
18794;DHT22;29610;49.022;12.114;2022-08-21T02:57:13;16.70;99.90
18794;DHT22;29610;49.022;12.114;2022-08-21T02:59:43;16.70;99.90
18794;DHT22;29610;49.022;12.114;2022-08-21T03:02:12;16.80;99.90
18794;DHT22;29610;49.022;12.114;2022-08-21T03:04:41;16.80;99.90
18794;DHT22;29610;49.022;12.114;2022-08-21T03:07:12;16.80;99.90
18794;DHT22;29610;49.022;12.114;2022-08-21T03:09:42;16.80;99.90
18794;DHT22;29610;49.022;12.114;2022-08-21T03:12:22;16.80;99.90
18794;DHT22;29610;49.022;12.114;2022-08-21T03:14:53;16.90;99.90
18794;DHT22;29610;49.022;12.114;2022-08-21T03:17:22;16.80;99.90
18794;DHT22;29610;49.022;12.114;2022-08-21T03:19:56;16.80;99.90
18794;DHT22;29610;49.022;12.114;2022-08-21T03:22:25;16.80;99.90
18794;DHT22;29610;49.022;12.114;2022-08-21T03:24:57;16.70;99.90
18794;DHT22;29610;49.022;12.114;2022-08-21T03:27:26;16.80;99.90
18794;DHT22;29610;49.022;12.114;2022-08-21T03:29:57;16.80;99.90
18794;DHT22;29610;49.022;12.114;2022-08-21T03:32:26;16.60;99.90
18794;DHT22;29610;49.022;12.114;2022-08-21T03:34:54;16.50;99.90
18794;DHT22;29610;49.022;12.114;2022-08-21T03:37:23;16.60;99.90
18794;DHT22;29610;49.022;12.114;2022-08-21T03:39:52;16.70;99.90
18794;DHT22;29610;49.022;12.114;2022-08-21T03:42:21;16.60;99.90
18794;DHT22;29610;49.022;12.114;2022-08-21T03:44:50;16.80;99.90
18794;DHT22;29610;49.022;12.114;2022-08-21T03:47:21;16.60;99.90
18794;DHT22;29610;49.022;12.114;2022-08-21T03:49:50;16.70;99.90
18794;DHT22;29610;49.022;12.114;2022-08-21T03:52:19;16.80;99.90
18794;DHT22;29610;49.022;12.114;2022-08-21T03:54:47;16.80;99.90
18794;DHT22;29610;49.022;12.114;2022-08-21T03:57:17;16.80;99.90
18794;DHT22;29610;49.022;12.114;2022-08-21T03:59:46;16.80;99.90
18794;DHT22;29610;49.022;12.114;2022-08-21T04:02:16;16.80;99.90
18794;DHT22;29610;49.022;12.114;2022-08-21T04:04:49;16.70;99.90
18794;DHT22;29610;49.022;12.114;2022-08-21T04:07:17;16.60;99.90
18794;DHT22;29610;49.022;12.114;2022-08-21T04:09:46;16.70;99.90
18794;DHT22;29610;49.022;12.114;2022-08-21T04:12:14;16.70;99.90
18794;DHT22;29610;49.022;12.114;2022-08-21T04:14:43;16.70;99.90
18794;DHT22;29610;49.022;12.114;2022-08-21T04:17:11;16.70;99.90
18794;DHT22;29610;49.022;12.114;2022-08-21T04:19:41;16.60;99.90
18794;DHT22;29610;49.022;12.114;2022-08-21T04:22:10;16.60;99.90
18794;DHT22;29610;49.022;12.114;2022-08-21T04:24:38;16.60;99.90
18794;DHT22;29610;49.022;12.114;2022-08-21T04:27:07;16.60;99.90
18794;DHT22;29610;49.022;12.114;2022-08-21T04:29:35;15.60;99.90
18794;DHT22;29610;49.022;12.114;2022-08-21T04:32:06;16.60;99.90
18794;DHT22;29610;49.022;12.114;2022-08-21T04:34:34;16.50;99.90
18794;DHT22;29610;49.022;12.114;2022-08-21T04:37:04;16.50;99.90
18794;DHT22;29610;49.022;12.114;2022-08-21T04:39:33;16.50;99.90
18794;DHT22;29610;49.022;12.114;2022-08-21T04:42:01;16.40;99.90
18794;DHT22;29610;49.022;12.114;2022-08-21T04:44:31;16.30;99.90
18794;DHT22;29610;49.022;12.114;2022-08-21T04:47:00;16.30;99.90
18794;DHT22;29610;49.022;12.114;2022-08-21T04:49:28;16.30;99.90
18794;DHT22;29610;49.022;12.114;2022-08-21T04:51:58;16.30;99.90
18794;DHT22;29610;49.022;12.114;2022-08-21T04:54:28;16.20;99.90
18794;DHT22;29610;49.022;12.114;2022-08-21T04:57:00;16.10;99.90
18794;DHT22;29610;49.022;12.114;2022-08-21T04:59:36;16.10;99.90
18794;DHT22;29610;49.022;12.114;2022-08-21T05:02:09;16.00;99.90
18794;DHT22;29610;49.022;12.114;2022-08-21T05:04:42;16.10;99.90
18794;DHT22;29610;49.022;12.114;2022-08-21T05:07:16;16.20;99.90
18794;DHT22;29610;49.022;12.114;2022-08-21T05:10:10;16.20;99.90
18794;DHT22;29610;49.022;12.114;2022-08-21T05:12:41;16.10;99.90
18794;DHT22;29610;49.022;12.114;2022-08-21T05:15:12;16.20;99.90
18794;DHT22;29610;49.022;12.114;2022-08-21T05:17:41;16.10;99.90
18794;DHT22;29610;49.022;12.114;2022-08-21T05:20:19;16.10;99.90
18794;DHT22;29610;49.022;12.114;2022-08-21T05:22:48;16.00;99.90
18794;DHT22;29610;49.022;12.114;2022-08-21T05:25:18;16.00;99.90
18794;DHT22;29610;49.022;12.114;2022-08-21T05:27:49;16.00;99.90
18794;DHT22;29610;49.022;12.114;2022-08-21T05:30:19;16.10;99.90
18794;DHT22;29610;49.022;12.114;2022-08-21T05:32:48;16.00;99.90
18794;DHT22;29610;49.022;12.114;2022-08-21T05:35:16;16.10;99.90
18794;DHT22;29610;49.022;12.114;2022-08-21T05:37:45;16.20;99.90
18794;DHT22;29610;49.022;12.114;2022-08-21T05:40:13;16.10;99.90
18794;DHT22;29610;49.022;12.114;2022-08-21T05:42:50;16.10;99.90
18794;DHT22;29610;49.022;12.114;2022-08-21T05:45:24;16.20;99.90
18794;DHT22;29610;49.022;12.114;2022-08-21T05:48:11;16.20;99.90
18794;DHT22;29610;49.022;12.114;2022-08-21T05:50:43;16.30;99.90
18794;DHT22;29610;49.022;12.114;2022-08-21T05:53:13;16.40;99.90
18794;DHT22;29610;49.022;12.114;2022-08-21T05:55:44;16.40;99.90
18794;DHT22;29610;49.022;12.114;2022-08-21T05:58:17;16.50;99.90
18794;DHT22;29610;49.022;12.114;2022-08-21T06:00:49;16.60;99.90
18794;DHT22;29610;49.022;12.114;2022-08-21T06:03:21;16.80;99.90
18794;DHT22;29610;49.022;12.114;2022-08-21T06:05:51;16.70;99.90
18794;DHT22;29610;49.022;12.114;2022-08-21T06:08:22;16.80;99.90
18794;DHT22;29610;49.022;12.114;2022-08-21T06:10:53;16.80;99.90
18794;DHT22;29610;49.022;12.114;2022-08-21T06:13:25;16.60;99.90
18794;DHT22;29610;49.022;12.114;2022-08-21T06:16:04;16.50;99.90
18794;DHT22;29610;49.022;12.114;2022-08-21T06:18:36;16.50;99.90
18794;DHT22;29610;49.022;12.114;2022-08-21T06:21:06;16.50;99.90
18794;DHT22;29610;49.022;12.114;2022-08-21T06:23:35;16.40;99.90
18794;DHT22;29610;49.022;12.114;2022-08-21T06:26:05;16.50;99.90
18794;DHT22;29610;49.022;12.114;2022-08-21T06:28:36;16.50;99.90
18794;DHT22;29610;49.022;12.114;2022-08-21T06:31:11;16.70;99.90
18794;DHT22;29610;49.022;12.114;2022-08-21T06:33:42;16.70;99.90
18794;DHT22;29610;49.022;12.114;2022-08-21T06:36:10;16.80;99.90
18794;DHT22;29610;49.022;12.114;2022-08-21T06:38:39;16.80;99.90
18794;DHT22;29610;49.022;12.114;2022-08-21T06:41:18;17.00;99.90
18794;DHT22;29610;49.022;12.114;2022-08-21T06:43:55;17.00;99.90
18794;DHT22;29610;49.022;12.114;2022-08-21T06:46:28;17.30;99.90
18794;DHT22;29610;49.022;12.114;2022-08-21T06:48:57;17.40;99.90
18794;DHT22;29610;49.022;12.114;2022-08-21T06:51:26;17.50;99.90
18794;DHT22;29610;49.022;12.114;2022-08-21T06:53:55;17.60;99.90
18794;DHT22;29610;49.022;12.114;2022-08-21T06:56:25;17.70;99.90
18794;DHT22;29610;49.022;12.114;2022-08-21T06:58:55;17.70;99.90
18794;DHT22;29610;49.022;12.114;2022-08-21T07:01:25;17.80;99.90
18794;DHT22;29610;49.022;12.114;2022-08-21T07:03:55;17.70;99.90
18794;DHT22;29610;49.022;12.114;2022-08-21T07:06:23;17.80;99.90
18794;DHT22;29610;49.022;12.114;2022-08-21T07:08:53;17.90;99.90
18794;DHT22;29610;49.022;12.114;2022-08-21T07:11:25;18.10;99.90
18794;DHT22;29610;49.022;12.114;2022-08-21T07:13:55;18.20;99.90
18794;DHT22;29610;49.022;12.114;2022-08-21T07:16:25;18.30;99.90
18794;DHT22;29610;49.022;12.114;2022-08-21T07:18:53;18.30;99.90
18794;DHT22;29610;49.022;12.114;2022-08-21T07:21:22;18.40;99.90
18794;DHT22;29610;49.022;12.114;2022-08-21T07:23:52;18.40;99.90
18794;DHT22;29610;49.022;12.114;2022-08-21T07:26:22;18.50;99.90
18794;DHT22;29610;49.022;12.114;2022-08-21T07:28:51;18.60;99.90
18794;DHT22;29610;49.022;12.114;2022-08-21T07:31:24;18.60;99.90
18794;DHT22;29610;49.022;12.114;2022-08-21T07:33:53;18.40;99.90
18794;DHT22;29610;49.022;12.114;2022-08-21T07:36:22;18.40;99.90
18794;DHT22;29610;49.022;12.114;2022-08-21T07:38:51;18.70;99.90
18794;DHT22;29610;49.022;12.114;2022-08-21T07:41:22;18.80;99.90
18794;DHT22;29610;49.022;12.114;2022-08-21T07:43:52;18.90;99.90
18794;DHT22;29610;49.022;12.114;2022-08-21T07:46:22;18.50;99.90
18794;DHT22;29610;49.022;12.114;2022-08-21T07:48:51;18.60;99.90
18794;DHT22;29610;49.022;12.114;2022-08-21T07:51:23;18.70;99.90
18794;DHT22;29610;49.022;12.114;2022-08-21T07:53:56;18.80;99.90
18794;DHT22;29610;49.022;12.114;2022-08-21T07:56:26;18.70;99.90
18794;DHT22;29610;49.022;12.114;2022-08-21T07:58:55;18.80;99.90
18794;DHT22;29610;49.022;12.114;2022-08-21T08:01:26;18.60;99.90
18794;DHT22;29610;49.022;12.114;2022-08-21T08:03:54;18.40;99.90
18794;DHT22;29610;49.022;12.114;2022-08-21T08:06:23;18.60;99.90
18794;DHT22;29610;49.022;12.114;2022-08-21T08:08:52;18.70;99.90
18794;DHT22;29610;49.022;12.114;2022-08-21T08:11:21;18.60;99.90
18794;DHT22;29610;49.022;12.114;2022-08-21T08:13:51;18.50;99.90
18794;DHT22;29610;49.022;12.114;2022-08-21T08:16:20;18.50;99.90
18794;DHT22;29610;49.022;12.114;2022-08-21T08:18:50;18.50;99.90
18794;DHT22;29610;49.022;12.114;2022-08-21T08:21:19;18.30;99.90
18794;DHT22;29610;49.022;12.114;2022-08-21T08:23:48;18.40;99.90
18794;DHT22;29610;49.022;12.114;2022-08-21T08:26:16;18.50;99.90
18794;DHT22;29610;49.022;12.114;2022-08-21T08:28:45;18.60;99.90
18794;DHT22;29610;49.022;12.114;2022-08-21T08:31:14;18.60;99.90
18794;DHT22;29610;49.022;12.114;2022-08-21T08:33:43;18.70;99.90
18794;DHT22;29610;49.022;12.114;2022-08-21T08:36:14;18.90;99.90
18794;DHT22;29610;49.022;12.114;2022-08-21T08:38:46;18.90;99.90
18794;DHT22;29610;49.022;12.114;2022-08-21T08:41:18;18.90;99.90
18794;DHT22;29610;49.022;12.114;2022-08-21T08:44:00;18.90;99.90
18794;DHT22;29610;49.022;12.114;2022-08-21T08:46:35;18.70;99.90
18794;DHT22;29610;49.022;12.114;2022-08-21T08:49:15;18.70;99.90
18794;DHT22;29610;49.022;12.114;2022-08-21T08:51:55;18.50;99.90
18794;DHT22;29610;49.022;12.114;2022-08-21T08:54:29;18.40;99.90
18794;DHT22;29610;49.022;12.114;2022-08-21T08:57:02;18.60;99.90
18794;DHT22;29610;49.022;12.114;2022-08-21T08:59:39;18.80;99.90
18794;DHT22;29610;49.022;12.114;2022-08-21T09:02:11;18.80;99.90
18794;DHT22;29610;49.022;12.114;2022-08-21T09:04:41;18.80;99.90
18794;DHT22;29610;49.022;12.114;2022-08-21T09:07:23;19.00;99.90
18794;DHT22;29610;49.022;12.114;2022-08-21T09:10:05;18.80;99.90
18794;DHT22;29610;49.022;12.114;2022-08-21T09:12:51;18.80;99.90
18794;DHT22;29610;49.022;12.114;2022-08-21T09:15:30;18.70;99.90
18794;DHT22;29610;49.022;12.114;2022-08-21T09:18:23;18.80;99.90
18794;DHT22;29610;49.022;12.114;2022-08-21T09:21:12;18.80;99.90
18794;DHT22;29610;49.022;12.114;2022-08-21T09:23:55;19.00;99.90
18794;DHT22;29610;49.022;12.114;2022-08-21T09:26:33;19.10;99.90
18794;DHT22;29610;49.022;12.114;2022-08-21T09:29:17;19.20;99.90
18794;DHT22;29610;49.022;12.114;2022-08-21T09:31:50;19.50;99.90
18794;DHT22;29610;49.022;12.114;2022-08-21T09:34:25;19.80;99.90
18794;DHT22;29610;49.022;12.114;2022-08-21T09:36:56;19.50;99.90
18794;DHT22;29610;49.022;12.114;2022-08-21T09:39:39;19.60;99.90
18794;DHT22;29610;49.022;12.114;2022-08-21T09:42:22;19.50;99.90
18794;DHT22;29610;49.022;12.114;2022-08-21T09:45:07;19.40;99.90
18794;DHT22;29610;49.022;12.114;2022-08-21T09:47:41;19.50;99.90
18794;DHT22;29610;49.022;12.114;2022-08-21T09:50:13;19.40;99.90
18794;DHT22;29610;49.022;12.114;2022-08-21T09:52:47;19.30;99.90
18794;DHT22;29610;49.022;12.114;2022-08-21T09:55:30;20.00;99.90
18794;DHT22;29610;49.022;12.114;2022-08-21T09:58:20;20.20;99.90
18794;DHT22;29610;49.022;12.114;2022-08-21T10:00:58;20.40;99.90
18794;DHT22;29610;49.022;12.114;2022-08-21T10:03:33;20.90;99.90
18794;DHT22;29610;49.022;12.114;2022-08-21T10:06:07;20.40;99.90
18794;DHT22;29610;49.022;12.114;2022-08-21T10:08:40;20.50;99.90
18794;DHT22;29610;49.022;12.114;2022-08-21T10:11:13;20.00;99.90
18794;DHT22;29610;49.022;12.114;2022-08-21T10:13:51;20.20;99.90
18794;DHT22;29610;49.022;12.114;2022-08-21T10:16:33;20.60;99.90
18794;DHT22;29610;49.022;12.114;2022-08-21T10:19:17;21.30;99.90
18794;DHT22;29610;49.022;12.114;2022-08-21T10:22:00;21.60;99.90
18794;DHT22;29610;49.022;12.114;2022-08-21T10:24:50;21.70;99.90
18794;DHT22;29610;49.022;12.114;2022-08-21T10:27:36;21.90;99.90
18794;DHT22;29610;49.022;12.114;2022-08-21T10:30:14;22.60;99.90
18794;DHT22;29610;49.022;12.114;2022-08-21T10:32:57;23.10;99.90
18794;DHT22;29610;49.022;12.114;2022-08-21T10:35:39;23.10;99.90
18794;DHT22;29610;49.022;12.114;2022-08-21T10:38:40;23.00;99.90
18794;DHT22;29610;49.022;12.114;2022-08-21T10:42:02;23.30;99.90
18794;DHT22;29610;49.022;12.114;2022-08-21T10:44:58;23.70;99.90
18794;DHT22;29610;49.022;12.114;2022-08-21T10:47:46;24.00;99.90
18794;DHT22;29610;49.022;12.114;2022-08-21T10:50:29;24.00;99.90
18794;DHT22;29610;49.022;12.114;2022-08-21T10:53:11;24.10;99.90
18794;DHT22;29610;49.022;12.114;2022-08-21T10:56:05;23.70;99.90
18794;DHT22;29610;49.022;12.114;2022-08-21T10:58:48;23.50;99.90
18794;DHT22;29610;49.022;12.114;2022-08-21T11:01:33;23.30;99.90
18794;DHT22;29610;49.022;12.114;2022-08-21T11:04:11;24.00;99.90
18794;DHT22;29610;49.022;12.114;2022-08-21T11:06:47;24.40;99.90
18794;DHT22;29610;49.022;12.114;2022-08-21T11:09:24;25.20;99.90
18794;DHT22;29610;49.022;12.114;2022-08-21T11:11:58;26.00;99.20
18794;DHT22;29610;49.022;12.114;2022-08-21T11:14:47;26.60;97.00
18794;DHT22;29610;49.022;12.114;2022-08-21T11:17:31;26.10;96.90
18794;DHT22;29610;49.022;12.114;2022-08-21T11:20:10;25.70;96.80
18794;DHT22;29610;49.022;12.114;2022-08-21T11:22:47;25.40;97.40
18794;DHT22;29610;49.022;12.114;2022-08-21T11:25:33;26.00;96.60
18794;DHT22;29610;49.022;12.114;2022-08-21T11:28:08;27.00;94.70
18794;DHT22;29610;49.022;12.114;2022-08-21T11:30:50;26.90;94.20
18794;DHT22;29610;49.022;12.114;2022-08-21T11:33:45;25.40;95.80
18794;DHT22;29610;49.022;12.114;2022-08-21T11:36:28;24.90;96.60
18794;DHT22;29610;49.022;12.114;2022-08-21T11:39:13;24.60;98.20
18794;DHT22;29610;49.022;12.114;2022-08-21T11:41:56;24.40;97.90
18794;DHT22;29610;49.022;12.114;2022-08-21T11:44:42;24.60;97.30
18794;DHT22;29610;49.022;12.114;2022-08-21T11:47:27;25.20;97.30
18794;DHT22;29610;49.022;12.114;2022-08-21T11:50:12;25.50;96.70
18794;DHT22;29610;49.022;12.114;2022-08-21T11:53:07;25.30;96.20
18794;DHT22;29610;49.022;12.114;2022-08-21T11:55:43;25.50;95.50
18794;DHT22;29610;49.022;12.114;2022-08-21T11:58:20;25.40;96.70
18794;DHT22;29610;49.022;12.114;2022-08-21T12:00:56;25.10;96.80
18794;DHT22;29610;49.022;12.114;2022-08-21T12:03:34;25.10;96.70
18794;DHT22;29610;49.022;12.114;2022-08-21T12:06:12;25.20;96.70
18794;DHT22;29610;49.022;12.114;2022-08-21T12:08:58;26.00;95.60
18794;DHT22;29610;49.022;12.114;2022-08-21T12:11:29;26.90;93.90
18794;DHT22;29610;49.022;12.114;2022-08-21T12:14:00;27.10;92.90
18794;DHT22;29610;49.022;12.114;2022-08-21T12:16:42;27.40;92.30
18794;DHT22;29610;49.022;12.114;2022-08-21T12:19:28;27.60;92.20
18794;DHT22;29610;49.022;12.114;2022-08-21T12:22:10;27.20;91.80
18794;DHT22;29610;49.022;12.114;2022-08-21T12:24:42;27.60;91.60
18794;DHT22;29610;49.022;12.114;2022-08-21T12:27:20;28.00;86.90
18794;DHT22;29610;49.022;12.114;2022-08-21T12:29:56;28.20;88.10
18794;DHT22;29610;49.022;12.114;2022-08-21T12:32:30;27.90;85.60
18794;DHT22;29610;49.022;12.114;2022-08-21T12:35:14;27.90;88.10
18794;DHT22;29610;49.022;12.114;2022-08-21T12:37:58;27.30;87.00
18794;DHT22;29610;49.022;12.114;2022-08-21T12:40:42;27.50;88.90
18794;DHT22;29610;49.022;12.114;2022-08-21T12:43:19;27.40;90.00
18794;DHT22;29610;49.022;12.114;2022-08-21T12:45:50;26.60;88.20
18794;DHT22;29610;49.022;12.114;2022-08-21T12:48:23;26.10;89.10
18794;DHT22;29610;49.022;12.114;2022-08-21T12:50:58;25.80;90.90
18794;DHT22;29610;49.022;12.114;2022-08-21T12:53:43;26.50;88.30
18794;DHT22;29610;49.022;12.114;2022-08-21T12:56:17;27.00;89.00
18794;DHT22;29610;49.022;12.114;2022-08-21T12:58:49;27.30;87.50
18794;DHT22;29610;49.022;12.114;2022-08-21T13:01:25;27.60;88.90
18794;DHT22;29610;49.022;12.114;2022-08-21T13:04:00;27.90;82.70
18794;DHT22;29610;49.022;12.114;2022-08-21T13:06:37;28.40;78.90
18794;DHT22;29610;49.022;12.114;2022-08-21T13:09:12;28.80;78.30
18794;DHT22;29610;49.022;12.114;2022-08-21T13:11:45;28.80;75.90
18794;DHT22;29610;49.022;12.114;2022-08-21T13:14:24;29.20;79.30
18794;DHT22;29610;49.022;12.114;2022-08-21T13:17:11;29.00;76.00
18794;DHT22;29610;49.022;12.114;2022-08-21T13:19:54;28.90;74.30
18794;DHT22;29610;49.022;12.114;2022-08-21T13:22:25;28.80;74.90
18794;DHT22;29610;49.022;12.114;2022-08-21T13:25:08;28.90;75.10
18794;DHT22;29610;49.022;12.114;2022-08-21T13:27:39;28.70;74.40
18794;DHT22;29610;49.022;12.114;2022-08-21T13:30:12;28.40;75.10
18794;DHT22;29610;49.022;12.114;2022-08-21T13:32:49;28.70;75.40
18794;DHT22;29610;49.022;12.114;2022-08-21T13:35:23;28.50;72.20
18794;DHT22;29610;49.022;12.114;2022-08-21T13:37:54;28.60;74.60
18794;DHT22;29610;49.022;12.114;2022-08-21T13:40:28;29.00;68.10
18794;DHT22;29610;49.022;12.114;2022-08-21T13:43:00;29.10;69.30
18794;DHT22;29610;49.022;12.114;2022-08-21T13:45:31;29.30;67.00
18794;DHT22;29610;49.022;12.114;2022-08-21T13:48:01;28.80;68.50
18794;DHT22;29610;49.022;12.114;2022-08-21T13:50:35;28.20;70.10
18794;DHT22;29610;49.022;12.114;2022-08-21T13:53:19;27.50;72.60
18794;DHT22;29610;49.022;12.114;2022-08-21T13:55:51;27.50;72.10
18794;DHT22;29610;49.022;12.114;2022-08-21T13:58:28;27.40;71.30
18794;DHT22;29610;49.022;12.114;2022-08-21T14:00:59;27.50;70.00
18794;DHT22;29610;49.022;12.114;2022-08-21T14:03:36;27.40;73.30
18794;DHT22;29610;49.022;12.114;2022-08-21T14:06:15;27.70;72.60
18794;DHT22;29610;49.022;12.114;2022-08-21T14:08:49;27.30;71.80
18794;DHT22;29610;49.022;12.114;2022-08-21T14:11:22;26.80;74.70
18794;DHT22;29610;49.022;12.114;2022-08-21T14:13:58;26.70;75.80
18794;DHT22;29610;49.022;12.114;2022-08-21T14:16:42;26.80;74.40
18794;DHT22;29610;49.022;12.114;2022-08-21T14:19:18;26.40;74.50
18794;DHT22;29610;49.022;12.114;2022-08-21T14:21:49;26.00;76.10
18794;DHT22;29610;49.022;12.114;2022-08-21T14:24:27;26.00;76.90
18794;DHT22;29610;49.022;12.114;2022-08-21T14:27:05;26.30;75.00
18794;DHT22;29610;49.022;12.114;2022-08-21T14:29:39;26.30;74.70
18794;DHT22;29610;49.022;12.114;2022-08-21T14:32:13;25.80;75.20
18794;DHT22;29610;49.022;12.114;2022-08-21T14:34:51;25.60;78.40
18794;DHT22;29610;49.022;12.114;2022-08-21T14:37:24;25.60;77.70
18794;DHT22;29610;49.022;12.114;2022-08-21T14:39:56;25.80;76.20
18794;DHT22;29610;49.022;12.114;2022-08-21T14:42:27;25.80;75.70
18794;DHT22;29610;49.022;12.114;2022-08-21T14:45:00;25.80;77.00
18794;DHT22;29610;49.022;12.114;2022-08-21T14:47:33;25.90;77.40
18794;DHT22;29610;49.022;12.114;2022-08-21T14:50:02;25.60;76.80
18794;DHT22;29610;49.022;12.114;2022-08-21T14:52:31;25.50;76.00
18794;DHT22;29610;49.022;12.114;2022-08-21T14:55:00;25.40;75.90
18794;DHT22;29610;49.022;12.114;2022-08-21T14:57:31;25.40;76.40
18794;DHT22;29610;49.022;12.114;2022-08-21T15:00:07;25.40;76.40
18794;DHT22;29610;49.022;12.114;2022-08-21T15:02:41;25.40;75.50
18794;DHT22;29610;49.022;12.114;2022-08-21T15:05:12;25.40;75.60
18794;DHT22;29610;49.022;12.114;2022-08-21T15:07:51;25.30;74.90
18794;DHT22;29610;49.022;12.114;2022-08-21T15:10:21;25.20;75.80
18794;DHT22;29610;49.022;12.114;2022-08-21T15:12:52;25.10;75.00
18794;DHT22;29610;49.022;12.114;2022-08-21T15:15:43;25.00;74.10
18794;DHT22;29610;49.022;12.114;2022-08-21T15:18:17;25.10;75.60
18794;DHT22;29610;49.022;12.114;2022-08-21T15:20:46;24.00;72.70
18794;DHT22;29610;49.022;12.114;2022-08-21T15:23:23;25.40;73.40
18794;DHT22;29610;49.022;12.114;2022-08-21T15:25:57;25.50;73.20
18794;DHT22;29610;49.022;12.114;2022-08-21T15:28:38;25.20;74.10
18794;DHT22;29610;49.022;12.114;2022-08-21T15:31:17;24.90;72.00
18794;DHT22;29610;49.022;12.114;2022-08-21T15:33:45;24.80;72.90
18794;DHT22;29610;49.022;12.114;2022-08-21T15:36:15;24.90;70.90
18794;DHT22;29610;49.022;12.114;2022-08-21T15:38:45;24.90;68.90
18794;DHT22;29610;49.022;12.114;2022-08-21T15:45:33;25.00;68.20
18794;DHT22;29610;49.022;12.114;2022-08-21T15:48:41;25.20;66.70
18794;DHT22;29610;49.022;12.114;2022-08-21T15:51:15;24.50;64.60
18794;DHT22;29610;49.022;12.114;2022-08-21T15:54:56;25.30;63.60
18794;DHT22;29610;49.022;12.114;2022-08-21T15:57:25;25.30;61.80
18794;DHT22;29610;49.022;12.114;2022-08-21T15:59:57;25.30;61.70
18794;DHT22;29610;49.022;12.114;2022-08-21T16:02:41;25.30;62.50